Time;durP1;ratioP1;P1;durP2;ratioP2;P2;SDS_P1;SDS_P2;PMS_P1;PMS_P2;Temp;Humidity;BMP_temperature;BMP_pressure;BME280_temperature;BME280_humidity;BME280_pressure;Samples;Min_cycle;Max_cycle;Signal;HPM_P1;HPM_P2
2021/08/03 00:01:32;;;;;;;4.88;3.55;;;;;;;;;;5082486;28;20032;-80
2021/08/03 00:04:10;;;;;;;6.20;4.22;;;;;;;;;;5082522;28;20028;-78
2021/08/03 00:06:40;;;;;;;4.88;3.70;;;;;;;;;;5088511;28;20454;-80
2021/08/03 00:09:07;;;;;;;3.17;2.88;;;;;;;;;;5102287;28;20119;-79
2021/08/03 00:11:33;;;;;;;3.83;3.53;;;;;;;;;;5103347;28;20048;-79
2021/08/03 00:14:04;;;;;;;3.60;3.10;;;;;;;;;;5110370;28;20054;-79
2021/08/03 00:16:34;;;;;;;3.28;2.97;;;;;;;;;;5108028;28;20063;-79
2021/08/03 00:19:00;;;;;;;3.38;3.08;;;;;;;;;;5111218;28;20031;-80
2021/08/03 00:21:26;;;;;;;3.53;3.15;;;;;;;;;;5115936;28;20024;-78
2021/08/03 00:23:52;;;;;;;3.53;3.22;;;;;;;;;;5113694;28;20040;-79
2021/08/03 00:26:18;;;;;;;3.70;2.97;;;;;;;;;;5110409;28;20028;-79
2021/08/03 00:28:49;;;;;;;3.97;3.53;;;;;;;;;;5090066;28;20135;-77
2021/08/03 00:31:16;;;;;;;4.00;3.28;;;;;;;;;;5080841;28;20469;-79
2021/08/03 00:33:46;;;;;;;3.53;3.22;;;;;;;;;;5083614;28;20338;-79
2021/08/03 00:36:13;;;;;;;3.60;3.10;;;;;;;;;;5093097;28;20374;-80
2021/08/03 00:38:39;;;;;;;4.30;3.63;;;;;;;;;;5097178;28;20443;-79
2021/08/03 00:41:07;;;;;;;3.88;3.45;;;;;;;;;;5088421;28;20044;-80
2021/08/03 00:43:33;;;;;;;4.28;3.03;;;;;;;;;;5077821;28;20107;-80
2021/08/03 00:45:59;;;;;;;3.20;2.90;;;;;;;;;;5077225;28;20067;-80
2021/08/03 00:48:25;;;;;;;2.85;2.50;;;;;;;;;;5078152;28;20027;-79
2021/08/03 00:50:51;;;;;;;3.53;2.97;;;;;;;;;;5077352;28;20442;-80
2021/08/03 00:53:17;;;;;;;3.58;3.28;;;;;;;;;;5076444;28;20028;-80
2021/08/03 00:55:44;;;;;;;3.53;3.22;;;;;;;;;;5085376;28;20028;-80
2021/08/03 00:58:12;;;;;;;3.45;2.97;;;;;;;;;;5097244;28;20056;-80
2021/08/03 01:00:38;;;;;;;3.22;2.92;;;;;;;;;;5088247;28;20051;-79
2021/08/03 01:03:04;;;;;;;2.92;2.65;;;;;;;;;;5089182;28;20028;-80
2021/08/03 01:05:38;;;;;;;3.58;3.15;;;;;;;;;;5094986;28;20020;-80
2021/08/03 01:08:04;;;;;;;6.05;3.28;;;;;;;;;;5084283;28;20023;-79
2021/08/03 01:10:48;;;;;;;4.32;3.10;;;;;;;;;;5077804;28;20031;-80
2021/08/03 01:13:34;;;;;;;3.67;3.08;;;;;;;;;;5075750;28;20481;-79
2021/08/03 01:16:20;;;;;;;3.30;3.00;;;;;;;;;;5073575;28;20076;-79
2021/08/03 01:18:51;;;;;;;4.63;2.90;;;;;;;;;;5095022;28;20373;-80
2021/08/03 01:21:33;;;;;;;3.17;2.88;;;;;;;;;;5095167;28;20044;-79
2021/08/03 01:24:20;;;;;;;3.20;2.90;;;;;;;;;;5096819;28;20079;-80
2021/08/03 01:27:09;;;;;;;3.45;3.15;;;;;;;;;;5064971;28;20108;-80
2021/08/03 01:29:35;;;;;;;4.05;3.35;;;;;;;;;;5049642;28;20072;-77
2021/08/03 01:32:03;;;;;;;3.50;3.20;;;;;;;;;;5089301;28;20170;-78
2021/08/03 01:34:30;;;;;;;3.45;2.90;;;;;;;;;;5078880;28;20036;-81
2021/08/03 01:37:00;;;;;;;3.20;2.90;;;;;;;;;;5080704;28;20040;-79
2021/08/03 01:39:29;;;;;;;3.55;3.13;;;;;;;;;;5099158;28;20097;-81
2021/08/03 01:41:56;;;;;;;3.35;3.03;;;;;;;;;;5097656;28;20028;-80
2021/08/03 01:44:22;;;;;;;3.78;3.30;;;;;;;;;;5099691;28;20071;-79
2021/08/03 01:46:49;;;;;;;3.53;3.20;;;;;;;;;;5085794;28;20033;-79
2021/08/03 01:49:21;;;;;;;4.15;3.75;;;;;;;;;;5077848;28;20121;-80
2021/08/03 01:51:47;;;;;;;3.60;3.27;;;;;;;;;;5077575;28;20538;-80
2021/08/03 01:54:14;;;;;;;3.80;3.20;;;;;;;;;;5077994;28;20620;-80
2021/08/03 01:56:40;;;;;;;4.20;3.67;;;;;;;;;;5080178;28;20546;-80
2021/08/03 01:59:07;;;;;;;3.58;3.28;;;;;;;;;;5098300;28;20020;-80
2021/08/03 02:01:34;;;;;;;5.75;4.00;;;;;;;;;;5084932;28;20050;-79
2021/08/03 02:04:01;;;;;;;3.92;3.53;;;;;;;;;;5079763;28;20040;-80
2021/08/03 02:06:28;;;;;;;3.63;3.33;;;;;;;;;;5077424;28;20047;-79
2021/08/03 02:08:55;;;;;;;3.95;3.55;;;;;;;;;;5077266;28;20024;-81
2021/08/03 02:11:24;;;;;;;3.67;3.38;;;;;;;;;;5075383;28;20044;-80
2021/08/03 02:13:50;;;;;;;3.35;3.05;;;;;;;;;;5085107;28;20099;-80
2021/08/03 02:16:16;;;;;;;3.40;3.08;;;;;;;;;;5077805;28;20028;-79
2021/08/03 02:18:45;;;;;;;3.55;2.70;;;;;;;;;;5084341;28;20020;-79
2021/08/03 02:21:12;;;;;;;3.72;3.42;;;;;;;;;;5096621;28;20034;-81
2021/08/03 02:23:38;;;;;;;3.20;2.90;;;;;;;;;;5093806;28;20028;-78
2021/08/03 02:26:04;;;;;;;3.13;2.80;;;;;;;;;;5087362;28;20063;-79
2021/08/03 02:28:30;;;;;;;2.75;2.55;;;;;;;;;;5096759;28;20031;-80
2021/08/03 02:30:59;;;;;;;3.65;3.22;;;;;;;;;;5089277;28;20365;-80
2021/08/03 02:33:29;;;;;;;3.72;3.08;;;;;;;;;;5080196;28;20024;-79
2021/08/03 02:35:57;;;;;;;5.15;3.25;;;;;;;;;;5094397;28;20078;-80
2021/08/03 02:38:25;;;;;;;3.53;3.17;;;;;;;;;;5097119;28;20036;-80
2021/08/03 02:40:52;;;;;;;4.32;3.67;;;;;;;;;;5097559;28;20034;-79
2021/08/03 02:43:19;;;;;;;3.53;3.22;;;;;;;;;;5078551;28;20097;-78
2021/08/03 02:45:46;;;;;;;3.50;3.20;;;;;;;;;;5080033;28;20514;-81
2021/08/03 02:48:14;;;;;;;4.28;3.83;;;;;;;;;;5079064;28;20211;-79
2021/08/03 02:50:42;;;;;;;5.70;4.38;;;;;;;;;;5086428;28;20047;-81
2021/08/03 02:53:14;;;;;;;5.43;4.32;;;;;;;;;;5104041;28;20504;-80
2021/08/03 02:55:49;;;;;;;5.22;4.00;;;;;;;;;;5101286;28;20032;-80
2021/08/03 02:58:17;;;;;;;5.72;4.60;;;;;;;;;;5087111;28;20028;-80
2021/08/03 03:00:44;;;;;;;5.18;4.53;;;;;;;;;;5092116;28;20164;-79
2021/08/03 03:03:15;;;;;;;4.68;4.00;;;;;;;;;;5092529;28;20024;-78
2021/08/03 03:05:42;;;;;;;4.32;3.80;;;;;;;;;;5091512;28;20043;-79
2021/08/03 03:08:10;;;;;;;5.53;4.10;;;;;;;;;;5102036;28;20048;-78
2021/08/03 03:10:39;;;;;;;4.70;3.72;;;;;;;;;;5100791;28;20058;-79
2021/08/03 03:13:11;;;;;;;5.75;4.60;;;;;;;;;;5099807;28;20107;-79
2021/08/03 03:15:39;;;;;;;6.37;4.93;;;;;;;;;;5080204;28;20033;-79
2021/08/03 03:18:07;;;;;;;5.53;4.22;;;;;;;;;;5078748;28;20051;-80
2021/08/03 03:20:34;;;;;;;5.20;4.70;;;;;;;;;;5089460;28;20088;-76
2021/08/03 03:23:00;;;;;;;6.05;5.03;;;;;;;;;;5095794;28;20068;-77
2021/08/03 03:25:27;;;;;;;5.50;4.60;;;;;;;;;;5108897;28;20032;-79
2021/08/03 03:27:55;;;;;;;4.38;3.97;;;;;;;;;;5065958;28;20052;-82
2021/08/03 03:30:21;;;;;;;4.88;4.38;;;;;;;;;;5082591;28;20330;-79
2021/08/03 03:32:48;;;;;;;5.90;4.07;;;;;;;;;;5085368;28;20128;-79
2021/08/03 03:35:14;;;;;;;6.18;4.28;;;;;;;;;;5083623;28;20046;-80
2021/08/03 03:37:41;;;;;;;4.60;4.15;;;;;;;;;;5081972;28;20081;-78
2021/08/03 03:40:09;;;;;;;6.95;3.78;;;;;;;;;;5097012;28;20162;-80
2021/08/03 03:42:35;;;;;;;4.18;3.78;;;;;;;;;;5081865;28;20020;-79
2021/08/03 03:45:02;;;;;;;4.40;4.00;;;;;;;;;;5098454;28;20031;-79
2021/08/03 03:47:32;;;;;;;4.43;3.60;;;;;;;;;;5098545;28;20035;-79
2021/08/03 03:50:01;;;;;;;5.32;4.22;;;;;;;;;;5081466;28;20146;-79
2021/08/03 03:52:28;;;;;;;3.78;3.45;;;;;;;;;;5079619;28;20043;-79
2021/08/03 03:54:55;;;;;;;4.35;3.95;;;;;;;;;;5081793;28;20048;-79
2021/08/03 03:57:21;;;;;;;4.07;3.40;;;;;;;;;;5099819;28;20131;-80
2021/08/03 03:59:49;;;;;;;4.72;3.80;;;;;;;;;;5091573;28;20032;-80
2021/08/03 04:02:16;;;;;;;4.03;3.53;;;;;;;;;;5089899;28;20082;-78
2021/08/03 04:04:43;;;;;;;3.53;3.13;;;;;;;;;;5086212;28;20016;-79
2021/08/03 04:07:09;;;;;;;3.97;3.58;;;;;;;;;;5103512;28;20511;-79
2021/08/03 04:09:38;;;;;;;4.65;3.92;;;;;;;;;;5102716;28;20035;-80
2021/08/03 04:12:04;;;;;;;3.90;3.50;;;;;;;;;;5083918;28;20027;-80
2021/08/03 04:14:30;;;;;;;3.42;3.05;;;;;;;;;;5083239;28;20029;-78
2021/08/03 04:16:57;;;;;;;3.83;3.47;;;;;;;;;;5083829;28;20480;-81
2021/08/03 04:19:23;;;;;;;4.03;3.70;;;;;;;;;;5081120;28;20043;-79
2021/08/03 04:21:50;;;;;;;4.40;3.97;;;;;;;;;;5097409;28;20112;-77
2021/08/03 04:24:17;;;;;;;4.32;3.83;;;;;;;;;;5098857;28;20032;-78
2021/08/03 04:26:43;;;;;;;3.75;3.42;;;;;;;;;;5079480;28;20507;-78
2021/08/03 04:29:09;;;;;;;5.68;4.00;;;;;;;;;;5080170;28;20024;-78
2021/08/03 04:31:35;;;;;;;4.50;3.60;;;;;;;;;;5085869;28;20021;-77
2021/08/03 04:34:01;;;;;;;5.68;3.80;;;;;;;;;;5096169;28;20056;-77
2021/08/03 04:36:28;;;;;;;4.30;3.90;;;;;;;;;;5082084;28;20043;-77
2021/08/03 04:38:54;;;;;;;3.80;3.50;;;;;;;;;;5081589;28;20055;-77
2021/08/03 04:41:20;;;;;;;5.50;3.25;;;;;;;;;;5090687;28;20028;-77
2021/08/03 04:43:46;;;;;;;3.72;3.42;;;;;;;;;;5102970;28;20028;-78
2021/08/03 04:46:12;;;;;;;3.75;3.40;;;;;;;;;;5098776;28;20028;-78
2021/08/03 04:48:40;;;;;;;4.80;3.40;;;;;;;;;;5099328;28;20095;-78
2021/08/03 04:51:06;;;;;;;4.00;3.63;;;;;;;;;;5090760;28;20029;-78
2021/08/03 04:53:33;;;;;;;4.13;3.72;;;;;;;;;;5080328;28;20021;-78
2021/08/03 04:55:59;;;;;;;5.28;4.10;;;;;;;;;;5078576;28;20025;-79
2021/08/03 04:58:25;;;;;;;4.05;3.65;;;;;;;;;;5083442;28;20039;-78
2021/08/03 05:00:52;;;;;;;4.20;3.80;;;;;;;;;;5104927;28;20079;-79
2021/08/03 05:03:18;;;;;;;5.72;4.13;;;;;;;;;;5092000;28;20035;-79
2021/08/03 05:05:45;;;;;;;4.20;3.78;;;;;;;;;;5083671;28;20035;-79
2021/08/03 05:08:11;;;;;;;3.88;3.50;;;;;;;;;;5087259;28;20105;-78
2021/08/03 05:10:39;;;;;;;4.15;3.65;;;;;;;;;;5089999;28;20409;-78
2021/08/03 05:13:05;;;;;;;4.57;3.95;;;;;;;;;;5083682;28;20043;-78
2021/08/03 05:15:31;;;;;;;3.92;3.47;;;;;;;;;;5095547;28;20030;-79
2021/08/03 05:17:57;;;;;;;4.57;4.18;;;;;;;;;;5099198;28;20793;-79
2021/08/03 05:20:24;;;;;;;4.80;3.90;;;;;;;;;;5100483;28;20035;-79
2021/08/03 05:22:50;;;;;;;4.90;4.18;;;;;;;;;;5092914;28;20024;-79
2021/08/03 05:25:16;;;;;;;5.25;3.90;;;;;;;;;;5085086;28;20035;-77
2021/08/03 05:27:42;;;;;;;5.05;4.40;;;;;;;;;;5100081;28;20024;-81
2021/08/03 05:30:09;;;;;;;4.88;3.90;;;;;;;;;;5095330;28;20066;-79
2021/08/03 05:32:35;;;;;;;4.65;4.25;;;;;;;;;;5095869;28;20100;-80
2021/08/03 05:35:01;;;;;;;4.50;4.10;;;;;;;;;;5095705;28;20480;-80
2021/08/03 05:37:27;;;;;;;4.45;4.05;;;;;;;;;;5079716;28;20028;-77
2021/08/03 05:39:55;;;;;;;5.00;4.10;;;;;;;;;;5079122;28;20103;-79
2021/08/03 05:42:21;;;;;;;5.07;4.30;;;;;;;;;;5079820;28;20082;-79
2021/08/03 05:44:47;;;;;;;4.75;4.32;;;;;;;;;;5085437;28;20516;-78
2021/08/03 05:47:15;;;;;;;4.75;3.88;;;;;;;;;;5075844;28;20112;-78
2021/08/03 05:49:41;;;;;;;6.22;4.47;;;;;;;;;;5075857;28;20032;-79
2021/08/03 05:52:07;;;;;;;5.88;4.63;;;;;;;;;;5075930;28;20062;-78
2021/08/03 05:54:33;;;;;;;6.28;4.05;;;;;;;;;;5088823;28;20115;-78
2021/08/03 05:57:01;;;;;;;6.63;4.13;;;;;;;;;;5090364;28;20053;-78
2021/08/03 05:59:27;;;;;;;4.20;3.80;;;;;;;;;;5111642;28;20119;-78
2021/08/03 06:01:53;;;;;;;5.90;4.85;;;;;;;;;;5085803;28;20020;-78
2021/08/03 06:04:19;;;;;;;3.88;3.58;;;;;;;;;;5082564;28;20051;-78
2021/08/03 06:06:46;;;;;;;3.45;3.15;;;;;;;;;;5095344;28;20035;-78
2021/08/03 06:09:13;;;;;;;2.50;2.30;;;;;;;;;;5093487;28;20042;-78
2021/08/03 06:11:47;;;;;;;1.85;1.73;;;;;;;;;;5095382;28;20477;-78
2021/08/03 06:14:16;;;;;;;1.77;1.67;;;;;;;;;;5083597;28;20083;-78
2021/08/03 06:16:43;;;;;;;1.45;1.45;;;;;;;;;;5086972;28;20031;-77
2021/08/03 06:19:11;;;;;;;1.67;1.50;;;;;;;;;;5083056;28;20032;-77
2021/08/03 06:21:37;;;;;;;1.27;1.23;;;;;;;;;;5085121;28;20032;-78
2021/08/03 06:24:04;;;;;;;1.00;1.00;;;;;;;;;;5076165;28;20067;-78
2021/08/03 06:26:30;;;;;;;1.02;1.00;;;;;;;;;;5090897;28;20028;-79
2021/08/03 06:28:56;;;;;;;1.38;1.25;;;;;;;;;;5094451;28;20056;-77
2021/08/03 06:31:26;;;;;;;1.33;1.25;;;;;;;;;;5083623;28;20024;-78
2021/08/03 06:33:52;;;;;;;1.40;1.30;;;;;;;;;;5079905;28;20025;-77
2021/08/03 06:36:18;;;;;;;1.50;1.40;;;;;;;;;;5078289;28;20036;-77
2021/08/03 06:38:45;;;;;;;1.90;1.38;;;;;;;;;;5078706;28;20084;-78
2021/08/03 06:41:13;;;;;;;1.88;1.50;;;;;;;;;;5081245;28;20081;-77
2021/08/03 06:43:45;;;;;;;1.60;1.50;;;;;;;;;;5092400;28;20045;-77
2021/08/03 06:46:11;;;;;;;1.70;1.60;;;;;;;;;;5081460;28;20937;-78
2021/08/03 06:48:40;;;;;;;1.70;1.60;;;;;;;;;;5079250;28;20043;-78
2021/08/03 06:51:10;;;;;;;1.55;1.50;;;;;;;;;;5078237;28;20084;-77
2021/08/03 06:53:37;;;;;;;1.58;1.48;;;;;;;;;;5077680;28;20043;-78
2021/08/03 06:56:04;;;;;;;1.75;1.65;;;;;;;;;;5083682;28;20048;-78
2021/08/03 06:59:05;;;;;;;0.95;0.95;;;;;;;;;;5092934;28;20062;-77
2021/08/03 07:01:39;;;;;;;1.63;1.53;;;;;;;;;;5060691;28;20043;-77
2021/08/03 07:04:05;;;;;;;1.60;1.50;;;;;;;;;;5079932;28;20020;-78
2021/08/03 07:06:37;;;;;;;1.33;1.33;;;;;;;;;;5094059;28;20035;-79
2021/08/03 07:09:04;;;;;;;;;;;;;;;;;;5095991;28;20024;-77
2021/08/03 07:11:30;;;;;;;2.30;1.90;;;;;;;;;;5084380;28;20046;-77
2021/08/03 07:13:58;;;;;;;3.25;2.28;;;;;;;;;;5081425;28;20020;-77
2021/08/03 07:16:24;;;;;;;1.58;1.48;;;;;;;;;;5079031;28;20465;-78
2021/08/03 07:18:51;;;;;;;2.38;1.92;;;;;;;;;;5076512;28;20074;-77
2021/08/03 07:21:18;;;;;;;1.67;1.58;;;;;;;;;;5085602;28;20051;-78
2021/08/03 07:23:44;;;;;;;2.08;1.85;;;;;;;;;;5102694;28;20049;-78
2021/08/03 07:26:10;;;;;;;2.40;1.90;;;;;;;;;;5106899;28;20096;-78
2021/08/03 07:28:36;;;;;;;2.10;1.85;;;;;;;;;;5100679;28;20107;-78
2021/08/03 07:31:02;;;;;;;2.03;1.85;;;;;;;;;;5093129;28;20215;-78
2021/08/03 07:33:28;;;;;;;1.70;1.60;;;;;;;;;;5101938;28;20033;-78
2021/08/03 07:35:54;;;;;;;1.40;1.30;;;;;;;;;;5090458;28;20081;-77
2021/08/03 07:38:22;;;;;;;1.80;1.70;;;;;;;;;;5086539;28;20052;-77
2021/08/03 07:40:48;;;;;;;2.15;1.90;;;;;;;;;;5087467;28;20464;-79
2021/08/03 07:43:14;;;;;;;1.80;1.70;;;;;;;;;;5089710;28;20028;-77
2021/08/03 07:45:40;;;;;;;1.73;1.63;;;;;;;;;;5100146;28;20043;-77
2021/08/03 07:48:08;;;;;;;1.88;1.67;;;;;;;;;;5085979;28;20074;-77
2021/08/03 07:50:35;;;;;;;1.60;1.50;;;;;;;;;;5096342;28;20028;-77
2021/08/03 07:53:01;;;;;;;1.63;1.52;;;;;;;;;;5079735;28;20021;-77
2021/08/03 07:55:27;;;;;;;1.85;1.40;;;;;;;;;;5079495;28;20032;-78
2021/08/03 07:57:53;;;;;;;1.67;1.58;;;;;;;;;;5087853;28;20120;-78
2021/08/03 08:00:20;;;;;;;1.52;1.30;;;;;;;;;;5088934;28;20032;-77
2021/08/03 08:02:46;;;;;;;1.70;1.42;;;;;;;;;;5085866;28;20047;-78
2021/08/03 08:05:12;;;;;;;1.90;1.45;;;;;;;;;;5090708;28;20051;-77
2021/08/03 08:07:38;;;;;;;1.50;1.40;;;;;;;;;;5101101;28;20064;-77
2021/08/03 08:10:04;;;;;;;1.30;1.20;;;;;;;;;;5084257;28;20020;-78
2021/08/03 08:12:30;;;;;;;1.50;1.40;;;;;;;;;;5096296;28;20024;-77
2021/08/03 08:14:57;;;;;;;1.70;1.60;;;;;;;;;;5099687;28;20035;-77
2021/08/03 08:17:23;;;;;;;1.55;1.45;;;;;;;;;;5098514;28;20028;-79
2021/08/03 08:19:49;;;;;;;1.65;1.55;;;;;;;;;;5081263;28;20039;-78
2021/08/03 08:22:15;;;;;;;2.47;1.30;;;;;;;;;;5081921;28;20155;-78
2021/08/03 08:24:41;;;;;;;1.25;1.13;;;;;;;;;;5090580;28;20087;-78
2021/08/03 08:27:07;;;;;;;1.52;1.42;;;;;;;;;;5079589;28;20032;-78
2021/08/03 08:29:33;;;;;;;1.45;1.35;;;;;;;;;;5081294;28;20024;-78
2021/08/03 08:31:59;;;;;;;2.03;1.10;;;;;;;;;;5089953;28;20020;-78
2021/08/03 08:34:25;;;;;;;2.08;1.45;;;;;;;;;;5085195;28;20080;-79
2021/08/03 08:36:52;;;;;;;1.98;1.70;;;;;;;;;;5081967;28;20530;-79
2021/08/03 08:39:18;;;;;;;1.38;1.27;;;;;;;;;;5079357;28;20033;-78
2021/08/03 08:41:45;;;;;;;1.33;1.13;;;;;;;;;;5083073;28;20028;-79
2021/08/03 08:44:11;;;;;;;1.73;1.60;;;;;;;;;;5095782;28;20143;-78
2021/08/03 08:46:38;;;;;;;1.63;1.30;;;;;;;;;;5091770;28;20113;-77
2021/08/03 08:49:05;;;;;;;1.98;1.27;;;;;;;;;;5077646;28;20078;-78
2021/08/03 08:51:31;;;;;;;2.08;1.23;;;;;;;;;;5094052;28;20028;-78
2021/08/03 08:54:01;;;;;;;2.20;1.48;;;;;;;;;;5096135;28;20038;-78
2021/08/03 08:56:27;;;;;;;1.38;1.27;;;;;;;;;;5078200;28;20032;-78
2021/08/03 08:58:54;;;;;;;1.70;1.55;;;;;;;;;;5083143;28;20035;-79
2021/08/03 09:01:20;;;;;;;3.45;1.55;;;;;;;;;;5093727;28;20020;-79
2021/08/03 09:03:46;;;;;;;1.67;1.20;;;;;;;;;;5101822;28;20028;-78
2021/08/03 09:06:12;;;;;;;1.40;1.30;;;;;;;;;;5086702;28;20335;-78
2021/08/03 09:08:39;;;;;;;2.03;1.63;;;;;;;;;;5086100;28;20025;-79
2021/08/03 09:11:09;;;;;;;9.80;1.40;;;;;;;;;;5084210;28;20032;-79
2021/08/03 09:13:55;;;;;;;2.67;1.60;;;;;;;;;;5088706;28;20020;-78
2021/08/03 09:16:23;;;;;;;2.15;1.52;;;;;;;;;;5083898;28;20048;-78
2021/08/03 09:18:49;;;;;;;2.35;1.60;;;;;;;;;;5091743;28;20039;-78
2021/08/03 09:21:26;;;;;;;2.25;1.50;;;;;;;;;;5098134;28;20385;-77
2021/08/03 09:23:53;;;;;;;1.27;1.17;;;;;;;;;;5083700;28;20031;-78
2021/08/03 09:26:39;;;;;;;1.83;1.40;;;;;;;;;;5086459;28;20036;-79
2021/08/03 09:29:06;;;;;;;1.98;1.60;;;;;;;;;;5100302;28;20013;-79
2021/08/03 09:31:33;;;;;;;1.83;1.63;;;;;;;;;;5085356;28;20422;-78
2021/08/03 09:34:00;;;;;;;2.28;1.48;;;;;;;;;;5097539;28;20028;-78
2021/08/03 09:36:44;;;;;;;6.93;1.67;;;;;;;;;;5083435;28;20055;-79
2021/08/03 09:39:30;;;;;;;1.40;1.30;;;;;;;;;;5077705;28;20070;-80
2021/08/03 09:41:56;;;;;;;1.40;1.30;;;;;;;;;;5095685;28;20050;-79
2021/08/03 09:44:22;;;;;;;1.15;1.05;;;;;;;;;;5099327;28;20035;-79
2021/08/03 09:46:56;;;;;;;1.92;1.20;;;;;;;;;;5077616;28;20062;-79
2021/08/03 09:49:33;;;;;;;1.38;1.10;;;;;;;;;;5083442;28;20031;-78
2021/08/03 09:52:08;;;;;;;2.25;1.23;;;;;;;;;;5095040;28;20149;-78
2021/08/03 09:54:35;;;;;;;2.67;1.33;;;;;;;;;;5096993;28;20020;-78
2021/08/03 09:57:02;;;;;;;3.65;1.48;;;;;;;;;;5076781;28;20028;-80
2021/08/03 09:59:38;;;;;;;2.17;1.33;;;;;;;;;;5078368;28;20024;-77
2021/08/03 10:02:04;;;;;;;1.77;1.30;;;;;;;;;;5093111;28;20055;-77
2021/08/03 10:04:32;;;;;;;1.77;1.27;;;;;;;;;;5080810;28;20128;-78
2021/08/03 10:06:58;;;;;;;2.45;1.38;;;;;;;;;;5076882;28;20021;-78
2021/08/03 10:09:26;;;;;;;2.03;1.30;;;;;;;;;;5088625;28;20024;-79
2021/08/03 10:11:54;;;;;;;1.27;1.27;;;;;;;;;;5095355;28;20027;-78
2021/08/03 10:14:21;;;;;;;0.93;0.93;;;;;;;;;;5086707;28;20098;-78
2021/08/03 10:16:47;;;;;;;1.27;1.00;;;;;;;;;;5077867;28;20404;-77
2021/08/03 10:19:18;;;;;;;2.03;1.35;;;;;;;;;;5076811;28;20416;-79
2021/08/03 10:21:46;;;;;;;1.02;0.98;;;;;;;;;;5080879;28;20040;-79
2021/08/03 10:24:15;;;;;;;1.30;1.20;;;;;;;;;;5080742;28;20070;-79
2021/08/03 10:26:41;;;;;;;1.60;1.20;;;;;;;;;;5078661;28;20162;-79
2021/08/03 10:29:21;;;;;;;1.05;1.05;;;;;;;;;;5077919;28;20040;-79
2021/08/03 10:31:47;;;;;;;1.85;1.35;;;;;;;;;;5086346;28;20028;-79
2021/08/03 10:34:33;;;;;;;1.08;1.08;;;;;;;;;;5084935;28;20020;-77
2021/08/03 10:36:59;;;;;;;1.50;1.13;;;;;;;;;;5074301;28;20083;-79
2021/08/03 10:39:25;;;;;;;1.48;1.35;;;;;;;;;;5076955;28;20153;-77
2021/08/03 10:42:00;;;;;;;2.30;1.70;;;;;;;;;;5087842;28;20039;-78
2021/08/03 10:44:45;;;;;;;4.07;1.80;;;;;;;;;;5090221;28;20448;-78
2021/08/03 10:47:29;;;;;;;1.60;1.50;;;;;;;;;;5095764;28;20064;-78
2021/08/03 10:49:56;;;;;;;1.42;1.33;;;;;;;;;;5093420;28;20606;-78
2021/08/03 10:52:41;;;;;;;2.33;1.40;;;;;;;;;;5092922;28;20036;-79
2021/08/03 10:55:07;;;;;;;2.70;1.73;;;;;;;;;;5080502;28;20070;-78
2021/08/03 10:57:33;;;;;;;2.95;1.60;;;;;;;;;;5094740;28;20020;-78
2021/08/03 11:00:00;;;;;;;4.75;1.67;;;;;;;;;;5110906;28;20059;-77
2021/08/03 11:02:35;;;;;;;1.58;1.48;;;;;;;;;;5086181;28;20111;-79
2021/08/03 11:05:01;;;;;;;2.63;1.20;;;;;;;;;;5078038;28;20029;-77
2021/08/03 11:07:27;;;;;;;1.42;1.33;;;;;;;;;;5076136;28;20035;-79
2021/08/03 11:10:04;;;;;;;2.97;1.58;;;;;;;;;;5083115;28;20028;-78
2021/08/03 11:12:34;;;;;;;2.22;2.03;;;;;;;;;;5093056;28;20073;-78
2021/08/03 11:15:25;;;;;;;5.43;2.20;;;;;;;;;;5084079;28;20024;-78
2021/08/03 11:18:01;;;;;;;1.88;1.70;;;;;;;;;;5098379;28;20473;-79
2021/08/03 11:20:51;;;;;;;2.22;1.80;;;;;;;;;;5104251;28;20028;-78
2021/08/03 11:23:18;;;;;;;1.92;1.73;;;;;;;;;;5096628;28;20039;-78
2021/08/03 11:25:48;;;;;;;3.65;1.92;;;;;;;;;;5086130;28;20034;-78
2021/08/03 11:28:21;;;;;;;1.83;1.40;;;;;;;;;;5085836;28;20148;-78
2021/08/03 11:30:48;;;;;;;2.25;1.90;;;;;;;;;;5084623;28;20047;-78
2021/08/03 11:33:16;;;;;;;2.25;1.67;;;;;;;;;;5086799;28;20097;-77
2021/08/03 11:35:42;;;;;;;1.85;1.40;;;;;;;;;;5093131;28;20032;-77
2021/08/03 11:38:09;;;;;;;1.67;1.55;;;;;;;;;;5091515;28;20028;-79
2021/08/03 11:40:36;;;;;;;3.03;1.70;;;;;;;;;;5092824;28;20031;-79
2021/08/03 11:43:02;;;;;;;3.15;1.85;;;;;;;;;;5104494;28;20524;-78
2021/08/03 11:45:28;;;;;;;1.95;1.75;;;;;;;;;;5097283;28;20103;-79
2021/08/03 11:47:56;;;;;;;2.33;1.58;;;;;;;;;;5081690;28;20024;-79
2021/08/03 11:50:31;;;;;;;3.22;2.00;;;;;;;;;;5082489;28;20024;-78
2021/08/03 11:53:30;;;;;;;1.73;1.58;;;;;;;;;;5082390;28;20788;-79
2021/08/03 11:55:57;;;;;;;2.13;1.60;;;;;;;;;;5077466;28;20066;-79
2021/08/03 11:58:34;;;;;;;2.63;1.70;;;;;;;;;;5092408;28;20039;-78
2021/08/03 12:01:01;;;;;;;2.17;1.70;;;;;;;;;;5088631;28;20077;-78
2021/08/03 12:03:29;;;;;;;1.27;1.23;;;;;;;;;;5101239;28;20039;-77
2021/08/03 12:05:55;;;;;;;1.75;1.65;;;;;;;;;;5086116;28;20048;-80
2021/08/03 12:08:21;;;;;;;2.95;1.80;;;;;;;;;;5088802;28;20021;-78
2021/08/03 12:10:48;;;;;;;2.03;1.83;;;;;;;;;;5086431;28;20028;-78
2021/08/03 12:13:34;;;;;;;2.42;1.88;;;;;;;;;;5092866;28;20032;-78
2021/08/03 12:16:01;;;;;;;3.33;1.63;;;;;;;;;;5083689;28;20056;-77
2021/08/03 12:18:37;;;;;;;2.47;2.03;;;;;;;;;;5100047;28;20032;-78
2021/08/03 12:21:04;;;;;;;2.10;1.90;;;;;;;;;;5100412;28;20061;-78
2021/08/03 12:23:31;;;;;;;2.72;2.15;;;;;;;;;;5098009;28;20114;-77
2021/08/03 12:26:04;;;;;;;5.55;1.85;;;;;;;;;;5096626;28;20048;-78
2021/08/03 12:28:30;;;;;;;;;;;;;;;;;;5097470;28;20028;-78
2021/08/03 12:30:56;;;;;;;4.28;1.50;;;;;;;;;;5091294;28;19911;-78
2021/08/03 12:33:29;;;;;;;1.77;1.67;;;;;;;;;;5086253;28;20470;-79
2021/08/03 12:36:02;;;;;;;3.20;1.90;;;;;;;;;;5079348;28;20100;-78
2021/08/03 12:38:28;;;;;;;1.60;1.50;;;;;;;;;;5079136;28;20404;-78
2021/08/03 12:40:54;;;;;;;3.30;2.08;;;;;;;;;;5077160;28;20491;-77
2021/08/03 12:43:36;;;;;;;1.80;1.70;;;;;;;;;;5076793;28;20458;-77
2021/08/03 12:46:02;;;;;;;1.80;1.67;;;;;;;;;;5098240;28;20092;-79
2021/08/03 12:48:31;;;;;;;1.77;1.67;;;;;;;;;;5097737;28;20485;-79
2021/08/03 12:51:01;;;;;;;1.40;1.30;;;;;;;;;;5099389;28;20016;-79
2021/08/03 12:53:28;;;;;;;1.50;1.38;;;;;;;;;;5099894;28;20455;-79
2021/08/03 12:55:58;;;;;;;1.35;1.30;;;;;;;;;;5099484;28;20028;-79
2021/08/03 12:58:35;;;;;;;2.85;1.35;;;;;;;;;;5086013;28;20094;-77
2021/08/03 13:01:15;;;;;;;2.70;1.58;;;;;;;;;;5086208;28;20401;-78
2021/08/03 13:03:42;;;;;;;1.40;1.30;;;;;;;;;;5090576;28;20031;-78
2021/08/03 13:06:08;;;;;;;1.58;1.35;;;;;;;;;;5086581;28;20025;-78
2021/08/03 13:08:34;;;;;;;1.40;1.30;;;;;;;;;;5076716;28;20028;-79
2021/08/03 13:11:00;;;;;;;1.52;1.33;;;;;;;;;;5077175;28;20392;-79
2021/08/03 13:13:27;;;;;;;2.47;1.50;;;;;;;;;;5078937;28;20040;-79
2021/08/03 13:15:53;;;;;;;1.70;1.60;;;;;;;;;;5081712;28;20025;-81
2021/08/03 13:18:19;;;;;;;1.70;1.60;;;;;;;;;;5082907;28;20024;-80
2021/08/03 13:20:45;;;;;;;1.27;1.17;;;;;;;;;;5081755;28;20063;-80
2021/08/03 13:23:11;;;;;;;2.90;1.60;;;;;;;;;;5083281;28;20029;-81
2021/08/03 13:25:37;;;;;;;1.98;1.70;;;;;;;;;;5083022;28;20037;-81
2021/08/03 13:28:03;;;;;;;2.05;1.80;;;;;;;;;;5080785;28;20389;-80
2021/08/03 13:30:29;;;;;;;1.65;1.48;;;;;;;;;;5097100;28;20370;-79
2021/08/03 13:32:55;;;;;;;1.15;1.15;;;;;;;;;;5082330;28;20028;-79
2021/08/03 13:35:23;;;;;;;2.97;1.50;;;;;;;;;;5077340;28;20399;-79
2021/08/03 13:37:49;;;;;;;1.52;1.42;;;;;;;;;;5078893;28;20013;-78
2021/08/03 13:40:15;;;;;;;1.25;1.15;;;;;;;;;;5077489;28;20050;-78
2021/08/03 13:42:41;;;;;;;1.40;1.30;;;;;;;;;;5074963;28;20066;-78
2021/08/03 13:45:08;;;;;;;1.55;1.13;;;;;;;;;;5078044;28;20437;-79
2021/08/03 13:47:34;;;;;;;2.35;1.40;;;;;;;;;;5079294;28;20024;-78
2021/08/03 13:50:00;;;;;;;2.20;1.73;;;;;;;;;;5086787;28;20020;-78
2021/08/03 13:52:26;;;;;;;1.40;1.30;;;;;;;;;;5098580;28;20051;-82
2021/08/03 13:54:52;;;;;;;2.97;1.50;;;;;;;;;;5095822;28;20048;-78
2021/08/03 13:57:19;;;;;;;2.20;1.20;;;;;;;;;;5076925;28;20028;-78
2021/08/03 13:59:45;;;;;;;2.05;1.30;;;;;;;;;;5082126;28;20397;-78
2021/08/03 14:02:11;;;;;;;1.65;1.35;;;;;;;;;;5098406;28;20435;-80
2021/08/03 14:04:37;;;;;;;1.42;1.33;;;;;;;;;;5098940;28;20028;-79
2021/08/03 14:07:04;;;;;;;1.23;1.13;;;;;;;;;;5097724;28;20107;-77
2021/08/03 14:09:31;;;;;;;1.20;1.20;;;;;;;;;;5097127;28;20393;-78
2021/08/03 14:11:57;;;;;;;1.23;1.10;;;;;;;;;;5079443;28;20035;-79
2021/08/03 14:14:24;;;;;;;2.85;1.10;;;;;;;;;;5077449;28;20107;-78
2021/08/03 14:16:52;;;;;;;1.40;1.30;;;;;;;;;;5097212;28;20338;-78
2021/08/03 14:19:18;;;;;;;3.30;1.40;;;;;;;;;;5095314;28;20030;-78
2021/08/03 14:21:47;;;;;;;1.33;1.20;;;;;;;;;;5093234;28;20036;-77
2021/08/03 14:24:13;;;;;;;2.97;1.10;;;;;;;;;;5095950;28;20044;-78
2021/08/03 14:26:40;;;;;;;1.35;1.25;;;;;;;;;;5093025;28;20108;-78
2021/08/03 14:29:06;;;;;;;1.73;1.17;;;;;;;;;;5080071;28;20029;-78
2021/08/03 14:31:32;;;;;;;2.85;1.50;;;;;;;;;;5078543;28;20055;-79
2021/08/03 14:33:59;;;;;;;1.90;1.30;;;;;;;;;;5088191;28;20020;-79
2021/08/03 14:36:25;;;;;;;2.10;1.50;;;;;;;;;;5090246;28;20020;-80
2021/08/03 14:38:52;;;;;;;2.13;1.42;;;;;;;;;;5081921;28;20059;-78
2021/08/03 14:41:19;;;;;;;1.08;1.08;;;;;;;;;;5083207;28;20547;-78
2021/08/03 14:43:49;;;;;;;1.40;1.30;;;;;;;;;;5082906;28;20130;-78
2021/08/03 14:46:15;;;;;;;1.20;1.20;;;;;;;;;;5093508;28;20028;-78
2021/08/03 14:48:42;;;;;;;1.15;1.10;;;;;;;;;;5101627;28;20028;-78
2021/08/03 14:51:08;;;;;;;2.35;1.25;;;;;;;;;;5099229;28;20404;-78